Time;durP1;ratioP1;P1;durP2;ratioP2;P2;SDS_P1;SDS_P2;PMS_P1;PMS_P2;Temp;Humidity;BMP_temperature;BMP_pressure;BME280_temperature;BME280_humidity;BME280_pressure;Samples;Min_cycle;Max_cycle;Signal;HPM_P1;HPM_P2
2020/12/12 00:00:10;;;;;;;17.07;12.87;;;;;;;0.33;86.98;93390.34;5076006;28;20211;-76
2020/12/12 00:02:35;;;;;;;17.23;13.13;;;;;;;0.29;87.56;93384.75;5092036;28;20219;-78
2020/12/12 00:05:00;;;;;;;16.77;12.40;;;;;;;0.32;87.09;93376.78;5109546;28;20180;-77
2020/12/12 00:07:26;;;;;;;17.63;13.37;;;;;;;0.34;86.81;93364.69;5114151;28;20276;-77
2020/12/12 00:09:52;;;;;;;18.07;12.73;;;;;;;0.39;87.03;93369.38;5096175;28;20737;-77
2020/12/12 00:12:17;;;;;;;16.80;12.30;;;;;;;0.38;86.95;93367.78;5085189;28;20195;-78
2020/12/12 00:14:42;;;;;;;16.63;12.73;;;;;;;0.48;86.84;93368.53;5092136;28;20609;-77
2020/12/12 00:17:08;;;;;;;18.63;13.17;;;;;;;0.46;86.75;93367.88;5079108;28;20248;-77
2020/12/12 00:19:33;;;;;;;16.93;12.70;;;;;;;0.44;86.94;93368.03;5095662;28;20532;-77
2020/12/12 00:21:58;;;;;;;17.90;13.13;;;;;;;0.39;87.13;93364.28;5114357;28;20176;-76
2020/12/12 00:24:24;;;;;;;18.70;13.00;;;;;;;0.44;86.47;93362.94;5088717;28;20208;-76
2020/12/12 00:26:49;;;;;;;20.57;13.63;;;;;;;0.48;86.52;93363.44;5069417;28;20183;-76
2020/12/12 00:29:14;;;;;;;18.63;13.67;;;;;;;0.48;86.63;93366.00;5075371;28;20199;-76
2020/12/12 00:31:41;;;;;;;18.83;13.47;;;;;;;0.47;86.54;93364.38;5075407;28;20205;-77
2020/12/12 00:34:07;;;;;;;17.80;12.93;;;;;;;0.45;86.79;93368.84;5075587;28;20846;-77
2020/12/12 00:36:42;;;;;;;20.63;13.77;;;;;;;0.47;86.76;93370.31;5072989;28;20188;-77
2020/12/12 00:39:07;;;;;;;16.53;12.57;;;;;;;0.43;87.20;93371.50;5075229;28;20176;-77
2020/12/12 00:41:37;;;;;;;17.27;12.40;;;;;;;0.45;86.97;93363.72;5093232;28;20214;-77
2020/12/12 00:44:05;;;;;;;19.30;12.63;;;;;;;0.52;86.78;93373.22;5093464;28;20540;-77
2020/12/12 00:46:31;;;;;;;18.63;13.40;;;;;;;0.47;87.28;93372.06;5059897;28;20242;-77
2020/12/12 00:48:56;;;;;;;18.63;13.43;;;;;;;0.46;87.05;93362.78;5058183;28;20577;-76
2020/12/12 00:51:21;;;;;;;17.03;12.43;;;;;;;0.47;86.94;93366.94;5074687;28;20733;-76
2020/12/12 00:53:47;;;;;;;15.33;11.77;;;;;;;0.56;87.07;93363.53;5058471;28;20196;-77
2020/12/12 00:56:14;;;;;;;17.93;13.00;;;;;;;0.48;87.05;93353.22;5072885;28;20260;-77
2020/12/12 00:58:39;;;;;;;16.83;11.80;;;;;;;0.54;87.17;93360.34;5091806;28;20729;-77
2020/12/12 01:01:04;;;;;;;16.30;12.57;;;;;;;0.50;87.00;93362.34;5075059;28;20262;-76
2020/12/12 01:03:29;;;;;;;17.10;13.10;;;;;;;0.53;86.79;93371.47;5074719;28;20204;-77
2020/12/12 01:05:55;;;;;;;18.03;12.17;;;;;;;0.49;86.93;93365.03;5058163;28;20180;-77
2020/12/12 01:08:20;;;;;;;16.93;12.23;;;;;;;0.49;86.99;93368.41;5090040;28;20565;-77
2020/12/12 01:10:45;;;;;;;17.87;13.03;;;;;;;0.58;86.97;93371.88;5105363;28;20190;-77
2020/12/12 01:13:11;;;;;;;17.87;13.03;;;;;;;0.53;86.60;93374.03;5094569;28;20227;-77
2020/12/12 01:15:36;;;;;;;17.30;13.53;;;;;;;0.49;86.75;93376.06;5095095;28;20186;-77
2020/12/12 01:18:02;;;;;;;19.20;13.37;;;;;;;0.49;86.96;93375.25;5082801;28;20246;-77
2020/12/12 01:20:27;;;;;;;18.60;13.13;;;;;;;0.49;86.73;93372.72;5073879;28;20663;-76
2020/12/12 01:22:53;;;;;;;18.37;13.30;;;;;;;0.48;86.83;93378.75;5074452;28;20195;-77
2020/12/12 01:25:18;;;;;;;18.73;13.77;;;;;;;0.52;86.90;93375.78;5074303;28;20678;-76
2020/12/12 01:27:43;;;;;;;17.10;13.07;;;;;;;0.62;86.79;93369.81;5074684;28;20232;-77
2020/12/12 01:30:09;;;;;;;17.03;12.23;;;;;;;0.53;86.76;93381.69;5074574;28;20547;-77
2020/12/12 01:32:34;;;;;;;18.10;12.93;;;;;;;0.67;86.73;93380.44;5103949;28;20212;-78
2020/12/12 01:34:59;;;;;;;17.27;12.30;;;;;;;0.62;86.50;93374.94;5111347;28;20199;-77
2020/12/12 01:37:24;;;;;;;18.43;12.70;;;;;;;0.68;86.81;93382.03;5072919;28;20206;-77
2020/12/12 01:39:50;;;;;;;15.33;11.97;;;;;;;0.65;86.41;93382.31;5074031;28;20231;-78
2020/12/12 01:42:15;;;;;;;17.73;12.30;;;;;;;0.63;86.61;93377.38;5057608;28;20267;-77
2020/12/12 01:44:41;;;;;;;16.63;12.13;;;;;;;0.64;86.88;93375.63;5074125;28;20192;-77
2020/12/12 01:47:06;;;;;;;17.30;11.90;;;;;;;0.67;86.60;93376.13;5089960;28;20192;-77
2020/12/12 01:49:31;;;;;;;15.67;11.50;;;;;;;0.71;87.00;93376.66;5084442;28;20228;-77
2020/12/12 01:51:57;;;;;;;16.03;11.70;;;;;;;0.67;87.33;93375.31;5077192;28;20211;-78
2020/12/12 01:54:22;;;;;;;17.37;11.03;;;;;;;0.72;86.81;93376.53;5094152;28;20642;-77
2020/12/12 01:56:49;;;;;;;15.97;11.57;;;;;;;0.65;86.83;93374.66;5085868;28;20185;-78
2020/12/12 01:59:14;;;;;;;16.83;11.67;;;;;;;0.64;87.23;93373.06;5073981;28;20192;-78
2020/12/12 02:01:42;;;;;;;15.47;11.43;;;;;;;0.66;87.30;93377.06;5076907;28;20701;-77
2020/12/12 02:04:11;;;;;;;18.07;11.47;;;;;;;0.71;87.39;93379.22;5093537;28;20248;-77
2020/12/12 02:06:37;;;;;;;18.93;12.60;;;;;;;0.72;87.38;93376.53;5094202;28;20178;-77
2020/12/12 02:09:02;;;;;;;17.57;12.10;;;;;;;0.85;87.05;93382.09;5073443;28;20197;-77
2020/12/12 02:11:27;;;;;;;15.83;11.23;;;;;;;0.84;86.62;93367.72;5073431;28;20180;-77
2020/12/12 02:13:56;;;;;;;17.13;12.10;;;;;;;0.89;86.13;93362.19;5073493;28;20231;-77
2020/12/12 02:16:21;;;;;;;18.93;12.40;;;;;;;0.84;86.50;93367.72;5090572;28;20272;-77
2020/12/12 02:18:46;;;;;;;17.77;11.70;;;;;;;0.84;86.42;93357.50;5071111;28;20266;-78
2020/12/12 02:21:12;;;;;;;17.03;11.33;;;;;;;0.78;86.62;93363.16;5073564;28;20203;-77
2020/12/12 02:23:37;;;;;;;17.10;11.60;;;;;;;0.82;86.58;93371.38;5056388;28;20256;-77
2020/12/12 02:26:03;;;;;;;16.93;11.13;;;;;;;0.78;86.72;93375.94;5056949;28;20181;-77
2020/12/12 02:28:54;;;;;;;16.97;11.43;;;;;;;0.84;86.49;93377.13;5088866;28;20188;-79
2020/12/12 02:31:15;;;;;;;17.97;11.93;;;;;;;0.85;86.79;93374.44;5064292;28;20200;-77
2020/12/12 02:33:40;;;;;;;18.93;12.83;;;;;;;0.87;86.71;93370.91;5073649;28;20274;-77
2020/12/12 02:36:06;;;;;;;19.50;12.37;;;;;;;0.84;86.62;93375.38;5073284;28;20216;-77
2020/12/12 02:38:32;;;;;;;22.33;13.00;;;;;;;0.81;86.39;93375.66;5073474;28;20271;-78
2020/12/12 02:40:57;;;;;;;23.83;14.03;;;;;;;0.81;85.85;93374.88;5077202;28;20283;-77
2020/12/12 02:43:22;;;;;;;22.53;14.93;;;;;;;0.70;86.09;93375.84;5073448;28;20295;-77
2020/12/12 02:45:48;;;;;;;24.60;15.67;;;;;;;0.73;85.87;93370.47;5056229;28;20183;-77
2020/12/12 02:48:13;;;;;;;23.77;15.10;;;;;;;0.70;85.82;93370.72;5073523;28;20533;-77
2020/12/12 02:50:40;;;;;;;22.87;14.47;;;;;;;0.67;85.96;93368.47;5071046;28;20628;-77
2020/12/12 02:53:05;;;;;;;22.20;14.13;;;;;;;0.72;86.01;93366.31;5072350;28;20220;-77
2020/12/12 02:55:30;;;;;;;24.13;15.33;;;;;;;0.66;86.04;93368.59;5073118;28;20602;-78
2020/12/12 02:57:56;;;;;;;24.03;14.73;;;;;;;0.67;85.97;93360.00;5091492;28;20574;-77
2020/12/12 03:00:24;;;;;;;21.30;14.03;;;;;;;0.74;85.42;93364.41;5056311;28;20215;-78
2020/12/12 03:02:49;;;;;;;23.53;14.47;;;;;;;0.67;86.10;93376.13;5072331;28;20189;-77
2020/12/12 03:05:15;;;;;;;25.87;16.13;;;;;;;0.71;85.71;93367.25;5076371;28;20273;-77
2020/12/12 03:07:40;;;;;;;26.10;15.43;;;;;;;0.59;86.09;93370.91;5093124;28;20175;-77
2020/12/12 03:10:07;;;;;;;23.87;15.40;;;;;;;0.60;86.40;93371.72;5093236;28;20176;-78
2020/12/12 03:12:33;;;;;;;23.07;14.40;;;;;;;0.60;86.20;93367.41;5084061;28;20177;-77
2020/12/12 03:14:59;;;;;;;24.03;15.07;;;;;;;0.61;86.14;93379.22;5102136;28;20223;-77
2020/12/12 03:17:24;;;;;;;25.27;15.30;;;;;;;0.61;86.30;93378.44;5060016;28;20632;-77
2020/12/12 03:19:50;;;;;;;25.03;14.17;;;;;;;0.57;86.55;93375.38;5094840;28;20283;-78
2020/12/12 03:22:15;;;;;;;22.00;14.00;;;;;;;0.61;86.11;93376.69;5089942;28;20258;-78
2020/12/12 03:24:40;;;;;;;22.93;14.60;;;;;;;0.63;86.28;93376.56;5094795;28;20204;-77
2020/12/12 03:27:06;;;;;;;22.20;14.37;;;;;;;0.67;86.52;93378.69;5060255;28;20260;-77
2020/12/12 03:29:31;;;;;;;20.20;14.20;;;;;;;0.61;86.32;93379.22;5076121;28;20188;-77
2020/12/12 03:31:56;;;;;;;23.00;14.77;;;;;;;0.62;86.12;93385.97;5095030;28;20200;-77
2020/12/12 03:34:21;;;;;;;22.80;14.53;;;;;;;0.59;86.42;93377.78;5090956;28;20220;-77
2020/12/12 03:36:47;;;;;;;21.43;14.37;;;;;;;0.59;86.52;93381.13;5108225;28;20260;-77
2020/12/12 03:39:12;;;;;;;21.93;13.83;;;;;;;0.62;86.39;93380.88;5096094;28;20595;-77
2020/12/12 03:41:37;;;;;;;23.60;14.17;;;;;;;0.65;86.43;93377.22;5079907;28;20590;-78
2020/12/12 03:44:04;;;;;;;24.77;14.97;;;;;;;0.63;86.47;93377.38;5081991;28;20703;-78
2020/12/12 03:46:29;;;;;;;22.93;14.90;;;;;;;0.69;86.34;93383.66;5075495;28;20233;-78
2020/12/12 03:48:54;;;;;;;25.00;15.23;;;;;;;0.69;86.34;93375.97;5076032;28;20640;-78
2020/12/12 03:51:20;;;;;;;21.03;14.27;;;;;;;0.74;86.12;93376.38;5059645;28;20187;-78
2020/12/12 03:53:45;;;;;;;24.47;14.97;;;;;;;0.72;86.03;93379.06;5076486;28;20196;-78
2020/12/12 03:56:10;;;;;;;22.87;14.37;;;;;;;0.69;86.09;93381.09;5056960;28;20203;-78
2020/12/12 03:58:35;;;;;;;24.63;14.90;;;;;;;0.74;86.02;93387.41;5076022;28;20181;-78
2020/12/12 04:01:01;;;;;;;24.83;14.93;;;;;;;0.66;86.07;93386.50;5075738;28;20211;-78
2020/12/12 04:03:26;;;;;;;24.77;15.37;;;;;;;0.62;86.31;93391.09;5059537;28;20215;-76
2020/12/12 04:05:52;;;;;;;26.07;15.67;;;;;;;0.60;86.43;93387.84;5073983;28;20725;-77
2020/12/12 04:08:17;;;;;;;22.27;14.03;;;;;;;0.74;86.10;93392.50;5076114;28;20238;-77
2020/12/12 04:10:43;;;;;;;23.10;14.83;;;;;;;0.70;86.24;93395.47;5093690;28;20203;-77
2020/12/12 04:13:08;;;;;;;22.00;13.97;;;;;;;0.69;86.03;93392.09;5076187;28;20275;-77
2020/12/12 04:15:33;;;;;;;24.03;15.23;;;;;;;0.67;86.25;93393.19;5072634;28;20223;-77
2020/12/12 04:17:59;;;;;;;26.27;15.20;;;;;;;0.72;86.39;93396.16;5092294;28;20536;-77
2020/12/12 04:20:24;;;;;;;23.57;14.90;;;;;;;0.74;86.32;93395.06;5078888;28;20199;-78
2020/12/12 04:22:49;;;;;;;22.73;15.17;;;;;;;0.75;86.42;93404.34;5095634;28;20301;-78
2020/12/12 04:25:15;;;;;;;23.33;14.53;;;;;;;0.74;86.22;93401.91;5113591;28;20203;-77
2020/12/12 04:27:41;;;;;;;26.23;15.47;;;;;;;0.72;86.42;93401.25;5062098;28;20177;-77
2020/12/12 04:30:07;;;;;;;23.27;15.23;;;;;;;0.75;86.40;93400.97;5078512;28;20194;-78
2020/12/12 04:32:32;;;;;;;22.87;14.87;;;;;;;0.66;86.89;93401.81;5113898;28;20180;-78
2020/12/12 04:34:57;;;;;;;25.93;16.00;;;;;;;0.65;86.65;93407.88;5095977;28;20559;-78
2020/12/12 04:37:22;;;;;;;23.03;14.93;;;;;;;0.66;87.04;93396.72;5085928;28;20188;-77
2020/12/12 04:39:48;;;;;;;27.10;16.30;;;;;;;0.63;87.11;93400.34;5061464;28;20184;-78
2020/12/12 04:42:15;;;;;;;26.27;15.53;;;;;;;0.67;87.04;93400.88;5095332;28;20258;-78
2020/12/12 04:44:42;;;;;;;22.93;15.93;;;;;;;0.70;86.74;93401.38;5112742;28;20248;-76
2020/12/12 04:47:07;;;;;;;23.13;14.63;;;;;;;0.68;86.78;93405.03;5095627;28;20167;-77
2020/12/12 04:49:34;;;;;;;27.13;16.07;;;;;;;0.65;86.98;93401.00;5060190;28;20180;-78
2020/12/12 04:52:02;;;;;;;24.47;15.53;;;;;;;0.72;87.27;93412.28;5097176;28;20644;-77
2020/12/12 04:54:31;;;;;;;27.63;16.20;;;;;;;0.66;87.29;93410.28;5075007;28;20199;-77
2020/12/12 04:56:58;;;;;;;29.60;17.47;;;;;;;0.64;87.51;93412.19;5075147;28;20180;-78
2020/12/12 04:59:26;;;;;;;27.77;16.83;;;;;;;0.61;87.57;93409.88;5077457;28;20205;-77
2020/12/12 05:01:51;;;;;;;26.50;15.60;;;;;;;0.62;87.50;93416.63;5074326;28;20197;-78
2020/12/12 05:04:17;;;;;;;24.07;14.60;;;;;;;0.64;87.27;93407.06;5074598;28;20207;-78
2020/12/12 05:06:42;;;;;;;25.30;15.00;;;;;;;0.73;87.31;93407.97;5058264;28;20187;-78
2020/12/12 05:09:07;;;;;;;26.53;16.33;;;;;;;0.71;87.51;93415.78;5054518;28;20208;-77
2020/12/12 05:11:34;;;;;;;24.10;15.23;;;;;;;0.74;87.51;93409.59;5092812;28;20176;-78
2020/12/12 05:13:59;;;;;;;25.00;15.87;;;;;;;0.66;87.37;93410.28;5075016;28;20193;-77
2020/12/12 05:16:25;;;;;;;27.23;16.70;;;;;;;0.63;87.59;93418.25;5057970;28;20180;-78
2020/12/12 05:18:50;;;;;;;23.93;14.63;;;;;;;0.61;87.87;93422.66;5074589;28;20173;-77
2020/12/12 05:21:16;;;;;;;26.57;15.60;;;;;;;0.67;87.82;93418.75;5074272;28;20212;-78
2020/12/12 05:23:41;;;;;;;25.83;15.57;;;;;;;0.62;87.88;93416.63;5081999;28;20192;-78
2020/12/12 05:26:06;;;;;;;24.97;15.50;;;;;;;0.64;87.52;93427.50;5074176;28;20252;-77
2020/12/12 05:28:32;;;;;;;25.40;14.73;;;;;;;0.61;87.71;93425.22;5074372;28;20540;-77
2020/12/12 05:30:57;;;;;;;26.80;15.80;;;;;;;0.60;88.10;93428.72;5072260;28;20290;-78
2020/12/12 05:33:24;;;;;;;28.23;16.30;;;;;;;0.61;87.75;93430.31;5057515;28;20200;-77
2020/12/12 05:35:51;;;;;;;27.23;16.50;;;;;;;0.64;88.17;93427.50;5057443;28;20177;-78
2020/12/12 05:38:16;;;;;;;27.13;15.97;;;;;;;0.63;87.80;93427.66;5091569;28;20168;-77
2020/12/12 05:40:43;;;;;;;30.47;17.03;;;;;;;0.62;88.01;93423.47;5056650;28;20211;-79
2020/12/12 05:43:12;;;;;;;26.50;16.30;;;;;;;0.67;87.93;93434.06;5058887;28;20253;-77
2020/12/12 05:45:41;;;;;;;26.87;16.37;;;;;;;0.63;88.16;93437.88;5091140;28;20255;-79
2020/12/12 05:48:08;;;;;;;29.13;16.60;;;;;;;0.68;87.61;93433.94;5057210;28;20642;-77
2020/12/12 05:50:33;;;;;;;27.67;16.30;;;;;;;0.70;88.15;93429.47;5090768;28;20178;-78
2020/12/12 05:52:59;;;;;;;27.77;16.43;;;;;;;0.66;88.16;93425.59;5071568;28;20192;-77
2020/12/12 05:55:28;;;;;;;29.07;17.47;;;;;;;0.60;88.56;93438.94;5084378;28;20569;-78
2020/12/12 05:57:54;;;;;;;27.13;15.77;;;;;;;0.62;88.37;93436.22;5112222;28;20260;-78
2020/12/12 06:00:22;;;;;;;28.10;16.10;;;;;;;0.68;88.10;93433.13;5112310;28;20504;-77
2020/12/12 06:03:31;;;;;;;25.40;15.33;;;;;;;0.68;87.74;93441.59;5084093;28;20185;-78
2020/12/12 06:06:03;;;;;;;29.47;16.13;;;;;;;0.74;87.90;93432.56;5079550;28;20182;-77
2020/12/12 06:09:07;;;;;;;25.70;16.20;;;;;;;0.63;88.22;93441.22;5093688;28;20229;-77
2020/12/12 06:11:34;;;;;;;27.70;16.07;;;;;;;0.69;88.03;93442.41;5094149;28;20179;-77
2020/12/12 06:14:01;;;;;;;25.37;15.13;;;;;;;0.67;87.85;93445.09;5099069;28;20200;-77
2020/12/12 06:16:29;;;;;;;26.33;15.77;;;;;;;0.66;88.01;93446.03;5067565;28;20179;-78
2020/12/12 06:19:02;;;;;;;29.60;17.10;;;;;;;0.63;87.98;93451.44;5093418;28;20293;-77
2020/12/12 06:21:28;;;;;;;27.97;16.87;;;;;;;0.65;87.76;93447.00;5093926;28;20210;-78
2020/12/12 06:23:56;;;;;;;29.47;16.60;;;;;;;0.65;87.76;93462.31;5069035;28;20687;-78
2020/12/12 06:26:32;;;;;;;29.10;15.70;;;;;;;0.69;88.19;93452.63;5091182;28;20183;-77
2020/12/12 06:28:59;;;;;;;29.47;16.37;;;;;;;0.65;88.29;93458.97;5076380;28;20181;-77
2020/12/12 06:31:25;;;;;;;30.20;18.57;;;;;;;0.60;88.09;93461.13;5093428;28;20258;-77
2020/12/12 06:33:52;;;;;;;33.33;17.60;;;;;;;0.65;88.24;93464.06;5093674;28;20187;-77
2020/12/12 06:36:41;;;;;;;30.20;17.03;;;;;;;0.64;88.08;93465.81;5076825;28;20191;-77
2020/12/12 06:39:21;;;;;;;29.50;16.17;;;;;;;0.61;88.01;93468.63;5056062;28;20180;-78
2020/12/12 06:41:49;;;;;;;29.57;16.87;;;;;;;0.61;87.92;93468.63;5055920;28;20582;-78
2020/12/12 06:44:30;;;;;;;30.60;17.30;;;;;;;0.66;88.22;93466.47;5056542;28;20211;-78
2020/12/12 06:46:55;;;;;;;29.07;16.63;;;;;;;0.66;88.32;93476.69;5054530;28;20640;-78
2020/12/12 06:49:23;;;;;;;29.53;17.03;;;;;;;0.61;88.07;93478.84;5075369;28;20188;-78
2020/12/12 06:51:50;;;;;;;25.50;15.50;;;;;;;0.64;88.26;93480.34;5077068;28;20263;-78
2020/12/12 06:54:15;;;;;;;25.43;15.97;;;;;;;0.65;88.04;93485.31;5077461;28;20222;-77
2020/12/12 06:56:41;;;;;;;27.40;15.67;;;;;;;0.64;88.26;93483.69;5093142;28;20191;-78
2020/12/12 06:59:35;;;;;;;28.13;16.00;;;;;;;0.67;88.27;93485.97;5080243;28;20255;-78
2020/12/12 07:02:02;;;;;;;28.07;15.30;;;;;;;0.67;88.36;93493.63;5080697;28;20202;-78
2020/12/12 07:04:37;;;;;;;26.43;15.57;;;;;;;0.68;87.98;93494.44;5115732;28;20187;-77
2020/12/12 07:07:09;;;;;;;26.57;15.70;;;;;;;0.64;88.45;93493.13;5067814;28;20221;-78
2020/12/12 07:09:35;;;;;;;27.00;16.17;;;;;;;0.68;88.23;93502.91;5073713;28;20211;-78
2020/12/12 07:12:01;;;;;;;28.00;15.83;;;;;;;0.66;88.29;93499.69;5098026;28;20539;-78
2020/12/12 07:14:26;;;;;;;30.00;16.83;;;;;;;0.68;88.36;93502.09;5059056;28;20687;-76
2020/12/12 07:16:53;;;;;;;26.83;15.17;;;;;;;0.74;87.87;93504.13;5075391;28;20297;-77
2020/12/12 07:19:36;;;;;;;24.63;15.47;;;;;;;0.67;88.53;93508.97;5074024;28;20205;-77
2020/12/12 07:22:04;;;;;;;24.50;14.27;;;;;;;0.76;88.09;93510.69;5077045;28;20207;-77
2020/12/12 07:24:30;;;;;;;26.83;15.83;;;;;;;0.74;88.33;93509.22;5076310;28;20273;-77
2020/12/12 07:26:55;;;;;;;23.70;14.90;;;;;;;0.77;88.21;93519.97;5094982;28;20255;-78
2020/12/12 07:29:20;;;;;;;25.63;15.63;;;;;;;0.83;88.17;93521.16;5075630;28;20673;-78
2020/12/12 07:31:47;;;;;;;23.50;14.13;;;;;;;0.80;87.99;93518.91;5083452;28;20290;-78
2020/12/12 07:34:22;;;;;;;23.57;13.40;;;;;;;0.77;88.42;93527.63;5076101;28;20196;-78
2020/12/12 07:37:02;;;;;;;23.87;13.20;;;;;;;0.82;88.35;93528.03;5076880;28;20176;-78
2020/12/12 07:39:37;;;;;;;22.07;13.87;;;;;;;0.89;88.08;93535.16;5084191;28;20188;-78
2020/12/12 07:42:04;;;;;;;21.40;13.67;;;;;;;0.84;88.40;93538.91;5083713;28;20206;-77
2020/12/12 07:44:33;;;;;;;21.50;13.20;;;;;;;0.86;88.24;93543.88;5115035;28;20547;-78
2020/12/12 07:47:06;;;;;;;22.93;14.27;;;;;;;0.91;88.50;93546.84;5097268;28;20654;-78
2020/12/12 07:49:32;;;;;;;20.73;13.70;;;;;;;0.95;87.98;93547.34;5104708;28;20542;-77
2020/12/12 07:52:12;;;;;;;26.43;15.37;;;;;;;1.01;88.04;93551.91;5094455;28;20168;-77
2020/12/12 07:54:43;;;;;;;19.53;12.70;;;;;;;0.98;88.16;93550.47;5059207;28;20200;-77
2020/12/12 07:57:12;;;;;;;21.50;13.37;;;;;;;0.95;87.94;93557.56;5093287;28;20177;-77
2020/12/12 07:59:38;;;;;;;23.00;13.23;;;;;;;0.95;87.94;93557.56;5091027;28;20172;-78
2020/12/12 08:02:05;;;;;;;22.07;13.97;;;;;;;0.97;88.36;93566.75;5091806;28;20584;-77
2020/12/12 08:04:31;;;;;;;23.63;13.97;;;;;;;1.04;88.07;93565.22;5078059;28;20192;-76
2020/12/12 08:06:56;;;;;;;22.50;13.47;;;;;;;1.06;87.79;93570.19;5075664;28;20181;-77
2020/12/12 08:09:23;;;;;;;22.40;13.80;;;;;;;1.12;88.14;93572.19;5075393;28;20501;-79
2020/12/12 08:12:00;;;;;;;18.80;11.70;;;;;;;1.17;87.92;93571.78;5073320;28;20176;-76
2020/12/12 08:14:28;;;;;;;18.20;11.23;;;;;;;1.20;87.92;93569.75;5104823;28;20570;-77
2020/12/12 08:16:55;;;;;;;19.07;10.93;;;;;;;1.27;88.13;93581.03;5096283;28;20180;-77
2020/12/12 08:19:21;;;;;;;20.40;12.23;;;;;;;1.31;87.99;93584.13;5079353;28;20172;-78
2020/12/12 08:21:59;;;;;;;21.37;13.03;;;;;;;1.34;87.97;93591.53;5082387;28;20282;-78
2020/12/12 08:24:25;;;;;;;19.07;12.53;;;;;;;1.31;87.90;93587.47;5084702;28;20206;-77
2020/12/12 08:26:50;;;;;;;16.97;12.33;;;;;;;1.33;88.35;93590.72;5069053;28;20229;-79
2020/12/12 08:29:15;;;;;;;17.53;10.30;;;;;;;1.39;87.83;93589.34;5055568;28;20187;-77
2020/12/12 08:31:41;;;;;;;16.93;11.47;;;;;;;1.44;87.53;93596.59;5054945;28;20197;-80
2020/12/12 08:34:07;;;;;;;16.37;10.43;;;;;;;1.54;87.44;93597.38;5091985;28;20200;-76
2020/12/12 08:36:34;;;;;;;22.10;11.97;;;;;;;1.52;87.68;93604.38;5083050;28;20191;-78
2020/12/12 08:39:03;;;;;;;26.20;15.70;;;;;;;1.54;87.52;93608.41;5082142;28;20168;-77
2020/12/12 08:41:34;;;;;;;19.83;13.97;;;;;;;1.60;87.88;93609.59;5073053;28;20212;-79
2020/12/12 08:44:00;;;;;;;18.23;12.00;;;;;;;1.63;87.66;93606.75;5067806;28;20204;-77
2020/12/12 08:46:25;;;;;;;16.17;10.53;;;;;;;1.65;87.71;93609.97;5068964;28;20224;-78
2020/12/12 08:48:52;;;;;;;17.13;10.40;;;;;;;1.70;87.47;93618.03;5069785;28;20548;-79
2020/12/12 08:51:24;;;;;;;15.87;10.27;;;;;;;1.69;87.91;93614.69;5054902;28;20580;-77
2020/12/12 08:53:50;;;;;;;17.40;12.20;;;;;;;1.78;87.28;93625.81;5076672;28;20253;-78
2020/12/12 08:56:29;;;;;;;16.07;9.77;;;;;;;1.91;87.77;93621.16;5091176;28;20628;-77
2020/12/12 08:59:00;;;;;;;11.50;8.47;;;;;;;1.97;87.44;93628.28;5073788;28;20168;-77
2020/12/12 09:01:28;;;;;;;13.80;8.40;;;;;;;1.95;87.66;93632.75;5074711;28;20184;-77
2020/12/12 09:04:10;;;;;;;14.03;9.27;;;;;;;1.95;87.66;93637.88;5071492;28;20258;-77
2020/12/12 09:06:45;;;;;;;13.17;8.57;;;;;;;1.97;87.37;93624.94;5082057;28;20213;-77
2020/12/12 09:09:23;;;;;;;14.57;9.13;;;;;;;2.05;87.49;93637.81;5092323;28;20175;-76
2020/12/12 09:11:59;;;;;;;12.83;8.80;;;;;;;2.08;87.06;93637.53;5092984;28;20260;-77
2020/12/12 09:14:27;;;;;;;12.27;8.47;;;;;;;2.15;87.27;93645.44;5073330;28;20196;-81
2020/12/12 09:16:54;;;;;;;13.00;7.40;;;;;;;2.17;87.18;93653.78;5060223;28;20168;-77
2020/12/12 09:19:19;;;;;;;10.77;7.50;;;;;;;2.23;87.11;93660.91;5076647;28;20263;-77
2020/12/12 09:21:45;;;;;;;11.33;7.17;;;;;;;2.28;86.83;93659.50;5074350;28;20755;-77
2020/12/12 09:24:11;;;;;;;9.73;5.80;;;;;;;2.33;86.92;93665.97;5074742;28;20200;-77
2020/12/12 09:26:36;;;;;;;10.33;6.90;;;;;;;2.50;86.71;93662.63;5055942;28;20181;-77
2020/12/12 09:29:02;;;;;;;9.53;7.00;;;;;;;2.51;86.69;93670.16;5099156;28;20188;-76
2020/12/12 09:31:28;;;;;;;10.00;7.13;;;;;;;2.52;86.64;93674.34;5112776;28;20194;-77
2020/12/12 09:33:53;;;;;;;10.60;7.93;;;;;;;2.48;86.66;93680.72;5094965;28;20210;-77
2020/12/12 09:36:18;;;;;;;10.00;7.03;;;;;;;2.39;86.45;93686.72;5085867;28;20196;-77
2020/12/12 09:38:44;;;;;;;9.30;7.03;;;;;;;2.47;86.36;93688.53;5096764;28;20168;-77
2020/12/12 09:41:09;;;;;;;11.67;7.30;;;;;;;2.46;86.38;93687.72;5112669;28;20245;-76
2020/12/12 09:43:35;;;;;;;12.73;8.37;;;;;;;2.45;86.33;93695.56;5094127;28;20184;-78
2020/12/12 09:46:00;;;;;;;11.23;7.73;;;;;;;2.43;86.77;93697.47;5094525;28;20266;-78
2020/12/12 09:48:26;;;;;;;11.60;7.40;;;;;;;2.44;86.72;93699.06;5088199;28;20223;-77
2020/12/12 09:50:51;;;;;;;12.20;7.63;;;;;;;2.45;86.45;93706.59;5073938;28;20647;-77
2020/12/12 09:53:17;;;;;;;11.27;7.80;;;;;;;2.41;86.95;93700.16;5077216;28;20222;-78
2020/12/12 09:55:42;;;;;;;9.97;7.17;;;;;;;2.49;86.19;93699.47;5094351;28;20180;-77
2020/12/12 09:58:08;;;;;;;10.97;7.93;;;;;;;2.50;86.63;93704.44;5063875;28;20181;-76
2020/12/12 10:00:35;;;;;;;12.53;7.87;;;;;;;2.50;86.55;93709.56;5094053;28;20203;-77
2020/12/12 10:03:01;;;;;;;9.33;7.40;;;;;;;2.52;86.83;93706.84;5110842;28;20203;-77
2020/12/12 10:05:26;;;;;;;10.13;7.17;;;;;;;2.63;86.78;93713.53;5094291;28;20177;-77
2020/12/12 10:07:56;;;;;;;11.67;7.80;;;;;;;2.57;86.87;93714.13;5091899;28;20177;-78
2020/12/12 10:10:22;;;;;;;11.03;7.70;;;;;;;2.65;86.77;93719.31;5071687;28;20271;-78
2020/12/12 10:12:48;;;;;;;11.73;7.77;;;;;;;2.63;86.95;93724.56;5073957;28;20721;-77
2020/12/12 10:15:15;;;;;;;13.07;8.77;;;;;;;2.71;87.02;93727.22;5091663;28;20204;-77
2020/12/12 10:17:40;;;;;;;10.57;7.53;;;;;;;2.69;86.72;93718.06;5056862;28;20174;-77
2020/12/12 10:20:05;;;;;;;11.37;7.80;;;;;;;2.71;86.73;93722.09;5069913;28;20309;-78
2020/12/12 10:22:31;;;;;;;12.50;8.47;;;;;;;2.71;86.96;93728.97;5073612;28;20189;-77
2020/12/12 10:24:56;;;;;;;13.67;9.30;;;;;;;2.69;86.58;93734.25;5092921;28;20196;-77
2020/12/12 10:27:21;;;;;;;12.37;8.50;;;;;;;2.68;86.94;93726.72;5094077;28;20180;-77
2020/12/12 10:29:47;;;;;;;13.17;8.50;;;;;;;2.69;86.89;93731.69;5084366;28;20193;-77
2020/12/12 10:32:12;;;;;;;12.77;8.23;;;;;;;2.69;86.78;93729.13;5056811;28;20671;-77
2020/12/12 10:34:37;;;;;;;12.40;9.20;;;;;;;2.59;86.94;93742.97;5087918;28;20193;-77
2020/12/12 10:37:03;;;;;;;14.43;9.50;;;;;;;2.62;86.81;93740.91;5088963;28;20184;-77
2020/12/12 10:39:56;;;;;;;14.00;9.00;;;;;;;2.63;86.66;93734.81;5076609;28;20180;-76
2020/12/12 10:42:13;;;;;;;13.00;8.83;;;;;;;2.62;86.54;93740.09;5095788;28;20187;-77
2020/12/12 10:44:39;;;;;;;14.77;9.10;;;;;;;2.58;87.18;93747.28;5076774;28;20227;-77
2020/12/12 10:47:04;;;;;;;13.33;9.90;;;;;;;2.51;87.21;93743.66;5074505;28;20189;-76
2020/12/12 10:49:29;;;;;;;13.07;8.90;;;;;;;2.46;86.95;93746.66;5073110;28;20731;-76
2020/12/12 10:51:55;;;;;;;13.80;9.53;;;;;;;2.50;87.56;93752.31;5073269;28;20207;-78
2020/12/12 10:54:21;;;;;;;13.77;8.83;;;;;;;2.49;87.14;93756.63;5073355;28;20196;-76
2020/12/12 10:56:47;;;;;;;14.03;9.50;;;;;;;2.49;87.08;93755.81;5067098;28;20185;-77
2020/12/12 10:59:12;;;;;;;16.77;11.63;;;;;;;2.51;87.41;93757.28;5078252;28;20169;-77
2020/12/12 11:01:38;;;;;;;20.17;16.33;;;;;;;2.57;87.41;93761.03;5111297;28;20200;-77
2020/12/12 11:04:04;;;;;;;15.37;11.23;;;;;;;2.56;87.20;93761.97;5093642;28;20188;-76
2020/12/12 11:06:29;;;;;;;16.53;12.53;;;;;;;2.60;87.51;93765.06;5093718;28;20176;-77
2020/12/12 11:08:54;;;;;;;16.60;12.53;;;;;;;2.65;87.15;93760.31;5087275;28;20173;-77
2020/12/12 11:11:20;;;;;;;17.00;11.23;;;;;;;2.79;87.22;93759.84;5076152;28;20660;-76
2020/12/12 11:13:45;;;;;;;17.97;11.70;;;;;;;2.71;87.16;93764.88;5111377;28;20192;-78
2020/12/12 11:16:10;;;;;;;16.30;11.10;;;;;;;2.76;87.19;93766.06;5111722;28;20183;-76
2020/12/12 11:18:36;;;;;;;16.07;11.53;;;;;;;2.78;87.29;93769.28;5062805;28;20544;-76
2020/12/12 11:21:01;;;;;;;16.83;11.37;;;;;;;2.81;87.65;93757.94;5056232;28;20205;-76
2020/12/12 11:23:28;;;;;;;16.97;11.17;;;;;;;2.83;87.45;93761.19;5055973;28;20694;-77
2020/12/12 11:25:53;;;;;;;14.93;10.20;;;;;;;2.85;87.42;93759.25;5056614;28;20276;-77